Morningglory, Kentucky
Current Conditions -  °F | °C
As of 9:15 AM on Monday 24 Nov 2014 (Local Time) from KIOB Reporting Station
Light Rain Light Rain  
Wind Chill: 59°   Ceiling: 4800
Heat Index: 59°   Visibility: 10mi
Dew Point: 52°   Wind: 15mph
Humidity: 77%   Direction: 250°WSW
Pressure: 29.5"   Gusts: 33mph
Location:  38.4145°N, 84.2859°W
Report Text: KIOB 241415Z AUTO 25013G29KT 10SM -RA SCT036 BKN048 OVC065 15/11 A2950 RMK AO2
Loading
Personal Weather Stations






























Interactive Weather Map New forecast layout! Learn more

10-Day Weather Forecast

Advertisements
Track Severe Weather on mobile